createdAt,value
2017-11-10T00:01:56.763Z,17.40
2017-11-10T00:04:24.745Z,17.40
2017-11-10T00:06:53.327Z,17.30
2017-11-10T00:09:22.124Z,17.30
2017-11-10T00:11:50.192Z,17.40
2017-11-10T00:14:19.187Z,17.30
2017-11-10T00:16:47.233Z,17.30
2017-11-10T00:19:15.222Z,17.30
2017-11-10T00:21:43.817Z,17.30
2017-11-10T00:24:11.818Z,17.30
2017-11-10T00:26:40.036Z,17.30
2017-11-10T00:29:07.870Z,17.30
2017-11-10T00:31:35.799Z,17.30
2017-11-10T00:34:03.770Z,17.30
2017-11-10T00:36:31.853Z,17.30
2017-11-10T00:38:59.688Z,17.30
2017-11-10T00:41:28.381Z,17.30
2017-11-10T00:43:56.316Z,17.30
2017-11-10T00:46:24.216Z,17.30
2017-11-10T00:48:52.924Z,17.20
2017-11-10T00:51:20.954Z,17.30
2017-11-10T00:53:48.828Z,17.20
2017-11-10T00:56:17.489Z,17.20
2017-11-10T00:58:45.313Z,17.20
2017-11-10T01:01:13.144Z,17.20
2017-11-10T01:03:41.740Z,17.20
2017-11-10T01:06:11.442Z,17.20
2017-11-10T01:08:40.132Z,17.20
2017-11-10T01:11:08.751Z,17.20
2017-11-10T01:13:37.504Z,17.20
2017-11-10T01:16:05.460Z,17.20
2017-11-10T01:18:34.041Z,17.20
2017-11-10T01:21:03.076Z,17.20
2017-11-10T01:23:31.140Z,17.20
2017-11-10T01:25:59.148Z,17.20
2017-11-10T01:28:27.018Z,17.20
2017-11-10T01:30:55.088Z,17.10
2017-11-10T01:33:22.942Z,17.20
2017-11-10T01:35:50.779Z,17.10
2017-11-10T01:38:18.687Z,17.10
2017-11-10T01:40:46.512Z,17.10
2017-11-10T01:43:14.339Z,17.10
2017-11-10T01:45:43.003Z,17.10
2017-11-10T01:48:15.645Z,17.10
2017-11-10T01:50:43.477Z,17.10
2017-11-10T01:53:12.135Z,17.10
2017-11-10T01:55:39.986Z,17.10
2017-11-10T01:58:07.832Z,17.10
2017-11-10T02:00:35.673Z,17.10
2017-11-10T02:03:03.661Z,17.10
2017-11-10T02:05:32.439Z,17.10
2017-11-10T02:08:00.248Z,17.10
2017-11-10T02:10:28.120Z,17.10
2017-11-10T02:12:55.994Z,17.00
2017-11-10T02:15:23.869Z,17.00
2017-11-10T02:17:52.511Z,16.90
2017-11-10T02:20:20.436Z,16.90
2017-11-10T02:22:49.109Z,16.80
2017-11-10T02:25:16.975Z,16.80
2017-11-10T02:27:45.676Z,16.80
2017-11-10T02:30:14.412Z,16.80
2017-11-10T02:32:42.312Z,16.80
2017-11-10T02:35:10.267Z,16.70
2017-11-10T02:37:38.202Z,16.70
2017-11-10T02:40:06.217Z,16.70
2017-11-10T02:42:34.306Z,16.70
2017-11-10T02:45:03.065Z,16.60
2017-11-10T02:47:31.022Z,16.60
2017-11-10T02:49:58.971Z,16.60
2017-11-10T02:52:27.401Z,16.60
2017-11-10T02:54:56.073Z,16.60
2017-11-10T02:57:24.006Z,16.60
2017-11-10T02:59:51.882Z,16.60
2017-11-10T03:02:19.752Z,16.70
2017-11-10T03:04:47.609Z,16.60
2017-11-10T03:07:15.557Z,16.60
2017-11-10T03:09:43.422Z,16.70
2017-11-10T03:12:12.441Z,16.60
2017-11-10T03:14:40.448Z,16.60
2017-11-10T03:17:08.527Z,16.60
2017-11-10T03:19:38.524Z,16.70
2017-11-10T03:22:07.181Z,16.70
2017-11-10T03:24:35.140Z,16.70
2017-11-10T03:27:03.108Z,16.70
2017-11-10T03:29:30.949Z,16.70
2017-11-10T03:31:58.866Z,16.60
2017-11-10T03:34:26.742Z,16.70
2017-11-10T03:36:55.361Z,16.60
2017-11-10T03:39:23.296Z,16.50
2017-11-10T03:41:51.186Z,16.60
2017-11-10T03:44:19.125Z,16.60
2017-11-10T03:46:47.011Z,16.60
2017-11-10T03:49:15.713Z,16.50
2017-11-10T03:51:44.346Z,16.50
2017-11-10T03:54:12.198Z,16.50
2017-11-10T03:56:40.144Z,16.50
2017-11-10T03:59:08.039Z,16.50
2017-11-10T04:01:35.900Z,16.50
2017-11-10T04:04:03.833Z,16.50
2017-11-10T04:06:31.720Z,16.50
2017-11-10T04:08:59.591Z,16.50
2017-11-10T04:11:27.564Z,16.50
2017-11-10T04:13:55.483Z,16.50
2017-11-10T04:16:24.308Z,16.50
2017-11-10T04:18:53.039Z,16.40
2017-11-10T04:21:20.932Z,16.40
2017-11-10T04:23:49.534Z,16.30
2017-11-10T04:26:17.481Z,16.30
2017-11-10T04:28:45.471Z,16.30
2017-11-10T04:31:14.267Z,16.30
2017-11-10T04:33:42.172Z,16.30
2017-11-10T04:36:10.320Z,16.40
2017-11-10T04:38:38.280Z,16.40
2017-11-10T04:41:06.254Z,16.30
2017-11-10T04:43:34.173Z,16.30
2017-11-10T04:46:02.024Z,16.40
2017-11-10T04:48:29.941Z,16.40
2017-11-10T04:50:57.828Z,16.30
2017-11-10T04:53:25.745Z,16.40
2017-11-10T04:55:54.530Z,16.40
2017-11-10T04:58:22.492Z,16.30
2017-11-10T05:00:50.602Z,16.40
2017-11-10T05:03:18.428Z,16.40
2017-11-10T05:05:47.297Z,16.40
2017-11-10T05:08:15.351Z,16.40
2017-11-10T05:10:43.471Z,16.40
2017-11-10T05:13:12.168Z,16.40
2017-11-10T05:15:42.009Z,16.40
2017-11-10T05:18:09.865Z,16.40
2017-11-10T05:20:37.687Z,16.40
2017-11-10T05:23:05.597Z,16.40
2017-11-10T05:25:33.453Z,16.30
2017-11-10T05:28:02.150Z,16.30
2017-11-10T05:30:30.070Z,16.30
2017-11-10T05:32:57.949Z,16.30
2017-11-10T05:35:25.924Z,16.30
2017-11-10T05:37:53.858Z,16.30
2017-11-10T05:40:21.869Z,16.30
2017-11-10T05:42:49.821Z,16.30
2017-11-10T05:45:17.770Z,16.30
2017-11-10T05:47:45.688Z,16.20
2017-11-10T05:50:13.626Z,16.30
2017-11-10T05:52:41.598Z,16.30
2017-11-10T05:55:09.579Z,16.20
2017-11-10T05:57:38.258Z,16.20
2017-11-10T06:00:07.068Z,16.20
2017-11-10T06:02:35.847Z,16.20
2017-11-10T06:05:03.778Z,16.10
2017-11-10T06:07:31.760Z,16.20
2017-11-10T06:10:00.432Z,16.20
2017-11-10T06:12:28.263Z,16.20
2017-11-10T06:14:56.181Z,16.20
2017-11-10T06:17:24.861Z,16.20
2017-11-10T06:19:52.889Z,16.20
2017-11-10T06:22:20.954Z,16.20
2017-11-10T06:24:48.849Z,16.20
2017-11-10T06:27:16.917Z,16.30
2017-11-10T06:29:45.383Z,16.20
2017-11-10T06:32:13.690Z,16.20
2017-11-10T06:34:41.906Z,16.20
2017-11-10T06:37:09.823Z,16.20
2017-11-10T06:39:37.665Z,16.20
2017-11-10T06:42:05.597Z,16.20
2017-11-10T06:44:35.217Z,16.20
2017-11-10T06:47:03.443Z,16.10
2017-11-10T06:49:31.341Z,16.20
2017-11-10T06:52:00.014Z,16.20
2017-11-10T06:54:28.647Z,16.20
2017-11-10T06:56:56.532Z,16.20
2017-11-10T06:59:24.396Z,16.20
2017-11-10T07:01:52.323Z,16.10
2017-11-10T07:04:20.216Z,16.10
2017-11-10T07:06:48.086Z,16.20
2017-11-10T07:09:15.998Z,16.10
2017-11-10T07:11:44.662Z,16.10
2017-11-10T07:14:12.580Z,16.10
2017-11-10T07:16:41.589Z,16.10
2017-11-10T07:19:09.678Z,16.10
2017-11-10T07:21:37.591Z,16.20
2017-11-10T07:24:06.238Z,16.20
2017-11-10T07:26:34.280Z,16.20
2017-11-10T07:29:02.100Z,16.20
2017-11-10T07:31:29.964Z,16.30
2017-11-10T07:33:58.049Z,16.30
2017-11-10T07:36:26.769Z,16.30
2017-11-10T07:38:54.674Z,16.30
2017-11-10T07:41:22.861Z,16.30
2017-11-10T07:43:50.722Z,16.30
2017-11-10T07:46:18.601Z,16.30
2017-11-10T07:48:46.593Z,16.40
2017-11-10T07:51:15.357Z,16.30
2017-11-10T07:53:43.164Z,16.40
2017-11-10T07:56:10.984Z,16.40
2017-11-10T07:58:38.990Z,16.50
2017-11-10T08:01:06.817Z,16.50
2017-11-10T08:03:34.807Z,16.60
2017-11-10T08:06:03.468Z,16.70
2017-11-10T08:08:31.370Z,16.60
2017-11-10T08:10:59.290Z,16.80
2017-11-10T08:13:27.469Z,16.80
2017-11-10T08:15:55.398Z,16.80
2017-11-10T08:18:23.300Z,16.90
2017-11-10T08:20:51.132Z,16.90
2017-11-10T08:23:19.148Z,17.00
2017-11-10T08:25:47.044Z,17.00
2017-11-10T08:28:15.630Z,17.10
2017-11-10T08:30:44.297Z,17.20
2017-11-10T08:33:12.187Z,17.20
2017-11-10T08:35:40.078Z,17.20
2017-11-10T08:38:07.916Z,17.40
2017-11-10T08:40:35.836Z,17.40
2017-11-10T08:43:03.792Z,17.40
2017-11-10T08:45:31.659Z,17.50
2017-11-10T08:47:59.987Z,17.50
2017-11-10T08:50:28.740Z,17.70
2017-11-10T08:52:56.589Z,17.70
2017-11-10T08:55:24.442Z,17.70
2017-11-10T08:57:52.345Z,17.80
2017-11-10T09:00:20.266Z,17.80
2017-11-10T09:02:48.255Z,17.80
2017-11-10T09:05:16.257Z,17.90
2017-11-10T09:07:44.140Z,17.90
2017-11-10T09:10:12.833Z,18.00
2017-11-10T09:12:40.674Z,18.00
2017-11-10T09:15:08.534Z,18.10
2017-11-10T09:17:36.516Z,18.10
2017-11-10T09:20:05.105Z,18.20
2017-11-10T09:22:33.843Z,18.20
2017-11-10T09:25:01.841Z,18.20
2017-11-10T09:27:32.463Z,18.30
2017-11-10T09:30:05.949Z,18.40
2017-11-10T09:32:40.568Z,18.40
2017-11-10T09:35:10.156Z,18.50
2017-11-10T09:37:52.890Z,18.50
2017-11-10T09:40:26.506Z,18.50
2017-11-10T09:43:00.330Z,18.60
2017-11-10T09:45:34.910Z,18.70
2017-11-10T09:48:17.711Z,18.70
2017-11-10T09:50:51.252Z,18.80
2017-11-10T09:53:36.900Z,18.90
2017-11-10T09:56:23.598Z,18.90
2017-11-10T09:59:06.425Z,18.90
2017-11-10T10:01:41.050Z,19.00
2017-11-10T10:04:12.827Z,19.00
2017-11-10T10:06:41.346Z,19.10
2017-11-10T10:09:24.893Z,19.10
2017-11-10T10:11:58.367Z,19.10
2017-11-10T10:14:32.481Z,19.20
2017-11-10T10:17:16.068Z,19.20
2017-11-10T10:19:49.448Z,19.20
2017-11-10T10:22:23.035Z,19.30
2017-11-10T10:24:51.877Z,19.30
2017-11-10T10:27:19.810Z,19.30
2017-11-10T10:29:48.020Z,19.30
2017-11-10T10:32:15.861Z,19.40
2017-11-10T10:34:43.881Z,19.50
2017-11-10T10:37:11.957Z,19.50
2017-11-10T10:39:39.840Z,19.50
2017-11-10T10:42:08.657Z,19.60
2017-11-10T10:44:36.607Z,19.60
2017-11-10T10:47:04.538Z,19.60
2017-11-10T10:49:32.448Z,19.70
2017-11-10T10:52:00.420Z,19.60
2017-11-10T10:54:28.792Z,19.60
2017-11-10T10:56:57.063Z,19.60
2017-11-10T10:59:25.204Z,19.60
2017-11-10T11:01:53.372Z,19.60
2017-11-10T11:04:21.343Z,19.70
2017-11-10T11:06:49.599Z,19.60
2017-11-10T11:09:17.607Z,19.50
2017-11-10T11:11:45.830Z,19.60
2017-11-10T11:14:14.048Z,19.50
2017-11-10T11:16:42.712Z,19.50
2017-11-10T11:19:11.638Z,19.50
2017-11-10T11:21:39.538Z,19.50
2017-11-10T11:24:07.667Z,19.60
2017-11-10T11:26:35.573Z,19.70
2017-11-10T11:29:03.427Z,19.70
2017-11-10T11:31:31.244Z,19.70
2017-11-10T11:33:59.412Z,19.70
2017-11-10T11:36:27.265Z,19.70
2017-11-10T11:38:55.172Z,19.70
2017-11-10T11:41:23.120Z,19.70
2017-11-10T11:43:50.941Z,19.80
2017-11-10T11:46:19.441Z,19.80
2017-11-10T11:48:47.594Z,19.80
2017-11-10T11:51:15.589Z,19.80
2017-11-10T11:53:43.491Z,19.80
2017-11-10T11:56:11.749Z,19.80
2017-11-10T11:58:39.599Z,19.80
2017-11-10T12:01:08.879Z,19.70
2017-11-10T12:03:36.907Z,19.80
2017-11-10T12:06:04.822Z,19.80
2017-11-10T12:08:32.835Z,19.70
2017-11-10T12:11:01.015Z,19.80
2017-11-10T12:13:29.771Z,19.80
2017-11-10T12:15:57.673Z,19.80
2017-11-10T12:18:26.386Z,19.70
2017-11-10T12:20:54.580Z,19.70
2017-11-10T12:23:22.697Z,19.70
2017-11-10T12:25:51.694Z,19.60
2017-11-10T12:28:20.442Z,19.60
2017-11-10T12:30:48.496Z,19.60
2017-11-10T12:33:16.415Z,19.60
2017-11-10T12:35:44.661Z,19.60
2017-11-10T12:38:12.524Z,19.60
2017-11-10T12:40:40.477Z,19.50
2017-11-10T12:43:08.330Z,19.50
2017-11-10T12:45:36.451Z,19.50
2017-11-10T12:48:04.335Z,19.50
2017-11-10T12:50:33.177Z,19.40
2017-11-10T12:53:01.140Z,19.40
2017-11-10T12:55:29.134Z,19.40
2017-11-10T12:57:57.057Z,19.50
2017-11-10T13:00:25.054Z,19.50
2017-11-10T13:02:52.966Z,19.50
2017-11-10T13:05:22.379Z,19.40
2017-11-10T13:07:51.040Z,19.40
2017-11-10T13:10:19.011Z,19.40
2017-11-10T13:12:46.869Z,19.40
2017-11-10T13:15:14.798Z,19.40
2017-11-10T13:17:42.645Z,19.40
2017-11-10T13:20:11.252Z,19.40
2017-11-10T13:22:39.225Z,19.40
2017-11-10T13:25:07.076Z,19.40
2017-11-10T13:27:34.942Z,19.40
2017-11-10T13:30:02.771Z,19.30
2017-11-10T13:32:30.651Z,19.30
2017-11-10T13:34:59.385Z,19.40
2017-11-10T13:37:27.249Z,19.40
2017-11-10T13:39:55.085Z,19.40
2017-11-10T13:42:23.033Z,19.40
2017-11-10T13:44:51.704Z,19.30
2017-11-10T13:47:29.591Z,19.20
2017-11-10T13:49:57.478Z,19.30
2017-11-10T13:52:26.430Z,19.20
2017-11-10T13:54:54.280Z,19.20
2017-11-10T13:57:22.429Z,19.20
2017-11-10T13:59:51.033Z,19.20
2017-11-10T14:02:18.910Z,19.20
2017-11-10T14:04:46.770Z,19.10
2017-11-10T14:07:14.706Z,19.20
2017-11-10T14:09:43.295Z,19.10
2017-11-10T14:12:12.066Z,19.10
2017-11-10T14:14:39.982Z,19.10
2017-11-10T14:17:08.010Z,19.10
2017-11-10T14:19:36.887Z,19.10
2017-11-10T14:22:05.703Z,19.10
2017-11-10T14:24:33.577Z,19.10
2017-11-10T14:27:01.711Z,19.10
2017-11-10T14:29:29.604Z,19.00
2017-11-10T14:31:57.541Z,19.00
2017-11-10T14:34:25.561Z,19.00
2017-11-10T14:36:53.557Z,19.00
2017-11-10T14:39:21.602Z,18.90
2017-11-10T14:41:52.995Z,18.90
2017-11-10T14:44:20.975Z,18.90
2017-11-10T14:46:49.201Z,18.90
2017-11-10T14:49:17.047Z,18.90
2017-11-10T14:51:44.869Z,18.90
2017-11-10T14:54:12.793Z,18.80
2017-11-10T14:56:40.760Z,18.80
2017-11-10T14:59:08.675Z,18.80
2017-11-10T15:01:36.608Z,18.80
2017-11-10T15:04:04.536Z,18.80
2017-11-10T15:06:32.474Z,18.80
2017-11-10T15:09:00.414Z,18.80
2017-11-10T15:11:28.422Z,18.80
2017-11-10T15:13:56.660Z,18.70
2017-11-10T15:16:24.637Z,18.70
2017-11-10T15:18:52.483Z,18.70
2017-11-10T15:21:23.239Z,18.60
2017-11-10T15:23:51.163Z,18.60
2017-11-10T15:26:32.473Z,18.50
2017-11-10T15:29:00.686Z,18.50
2017-11-10T15:31:28.577Z,18.50
2017-11-10T15:33:57.227Z,18.40
2017-11-10T15:36:25.176Z,18.40
2017-11-10T15:38:53.277Z,18.40
2017-11-10T15:41:22.665Z,18.50
2017-11-10T15:43:50.589Z,18.50
2017-11-10T15:46:19.192Z,18.50
2017-11-10T15:48:47.129Z,18.50
2017-11-10T15:51:15.747Z,18.40
2017-11-10T15:53:43.661Z,18.50
2017-11-10T15:56:11.579Z,18.40
2017-11-10T15:58:39.426Z,18.40
2017-11-10T16:01:07.677Z,18.40
2017-11-10T16:03:36.354Z,18.40
2017-11-10T16:06:05.019Z,18.30
2017-11-10T16:08:33.202Z,18.30
2017-11-10T16:11:02.007Z,18.30
2017-11-10T16:13:30.854Z,18.40
2017-11-10T16:15:58.755Z,18.40
2017-11-10T16:18:27.565Z,18.30
2017-11-10T16:20:55.539Z,18.30
2017-11-10T16:23:24.201Z,18.40
2017-11-10T16:25:52.917Z,18.40
2017-11-10T16:28:21.813Z,18.30
2017-11-10T16:30:49.826Z,18.30
2017-11-10T16:33:17.679Z,18.30
2017-11-10T16:35:45.634Z,18.30
2017-11-10T16:38:13.580Z,18.30
2017-11-10T16:40:41.505Z,18.30
2017-11-10T16:43:09.526Z,18.30
2017-11-10T16:45:37.374Z,18.30
2017-11-10T16:48:06.038Z,18.20
2017-11-10T16:50:34.138Z,18.20
2017-11-10T16:53:02.071Z,18.20
2017-11-10T16:55:30.849Z,18.20
2017-11-10T16:57:58.775Z,18.20
2017-11-10T17:00:26.855Z,18.20
2017-11-10T17:02:54.954Z,18.20
2017-11-10T17:05:24.134Z,18.20
2017-11-10T17:07:52.052Z,18.10
2017-11-10T17:10:20.985Z,18.20
2017-11-10T17:12:49.188Z,18.20
2017-11-10T17:15:17.048Z,18.30
2017-11-10T17:17:44.973Z,18.30
2017-11-10T17:20:12.936Z,18.20
2017-11-10T17:22:41.091Z,18.20
2017-11-10T17:25:09.839Z,18.20
2017-11-10T17:27:37.747Z,18.20
2017-11-10T17:30:06.420Z,18.30
2017-11-10T17:32:35.513Z,18.20
2017-11-10T17:35:04.292Z,18.20
2017-11-10T17:37:32.163Z,18.20
2017-11-10T17:40:00.021Z,18.20
2017-11-10T17:42:27.918Z,18.30
2017-11-10T17:44:56.603Z,18.30
2017-11-10T17:47:25.337Z,18.30
2017-11-10T17:49:53.245Z,18.30
2017-11-10T17:52:21.249Z,18.30
2017-11-10T17:54:49.300Z,18.30
2017-11-10T17:57:17.970Z,18.30
2017-11-10T17:59:45.845Z,18.30
2017-11-10T18:02:14.486Z,18.30
2017-11-10T18:04:42.435Z,18.30
2017-11-10T18:07:10.521Z,18.30
2017-11-10T18:09:38.543Z,18.30
2017-11-10T18:12:07.829Z,18.30
2017-11-10T18:14:35.805Z,18.20
2017-11-10T18:17:05.624Z,18.20
2017-11-10T18:19:33.544Z,18.20
2017-11-10T18:22:01.564Z,18.20
2017-11-10T18:24:30.849Z,18.20
2017-11-10T18:26:59.803Z,18.20
2017-11-10T18:29:27.715Z,18.20
2017-11-10T18:31:57.272Z,18.20
2017-11-10T18:34:25.267Z,18.20
2017-11-10T18:36:53.166Z,18.20
2017-11-10T18:39:21.857Z,18.20
2017-11-10T18:41:50.685Z,18.20
2017-11-10T18:44:19.464Z,18.20
2017-11-10T18:46:47.404Z,18.20
2017-11-10T18:49:20.795Z,18.20
2017-11-10T18:51:49.450Z,18.20
2017-11-10T18:54:18.299Z,18.10
2017-11-10T18:56:46.364Z,18.20
2017-11-10T18:59:14.240Z,18.20
2017-11-10T19:01:42.117Z,18.20
2017-11-10T19:04:10.041Z,18.20
2017-11-10T19:06:39.061Z,18.20
2017-11-10T19:09:06.885Z,18.10
2017-11-10T19:11:35.481Z,18.20
2017-11-10T19:14:04.169Z,18.20
2017-11-10T19:16:32.774Z,18.10
2017-11-10T19:19:00.649Z,18.10
2017-11-10T19:21:30.459Z,18.20
2017-11-10T19:23:58.705Z,18.10
2017-11-10T19:26:27.367Z,18.20
2017-11-10T19:28:55.282Z,18.10
2017-11-10T19:31:23.219Z,18.10
2017-11-10T19:33:51.870Z,18.10
2017-11-10T19:36:19.781Z,18.10
2017-11-10T19:38:48.415Z,18.10
2017-11-10T19:41:16.259Z,18.10
2017-11-10T19:43:44.136Z,18.10
2017-11-10T19:46:11.982Z,18.10
2017-11-10T19:48:39.936Z,18.10
2017-11-10T19:51:07.795Z,18.10
2017-11-10T19:53:36.405Z,18.10
2017-11-10T19:56:04.345Z,18.10
2017-11-10T19:58:33.088Z,18.10
2017-11-10T20:01:01.102Z,18.10
2017-11-10T20:03:29.808Z,18.10
2017-11-10T20:05:57.669Z,18.10
2017-11-10T20:08:25.673Z,18.10
2017-11-10T20:10:53.673Z,18.10
2017-11-10T20:13:22.414Z,18.00
2017-11-10T20:15:51.999Z,18.00
2017-11-10T20:18:20.318Z,18.10
2017-11-10T20:20:48.990Z,18.10
2017-11-10T20:23:17.070Z,18.00
2017-11-10T20:25:45.972Z,18.00
2017-11-10T20:28:13.909Z,18.00
2017-11-10T20:30:53.875Z,18.10
2017-11-10T20:33:24.100Z,18.10
2017-11-10T20:35:52.007Z,18.10
2017-11-10T20:38:20.605Z,18.10
2017-11-10T20:40:49.207Z,18.10
2017-11-10T20:43:17.083Z,18.10
2017-11-10T20:45:45.014Z,18.00
2017-11-10T20:48:14.235Z,18.00
2017-11-10T20:50:42.103Z,18.00
2017-11-10T20:53:10.088Z,18.10
2017-11-10T20:55:39.262Z,18.00
2017-11-10T20:58:07.156Z,18.10
2017-11-10T21:00:35.775Z,18.00
2017-11-10T21:03:03.697Z,18.00
2017-11-10T21:05:32.399Z,18.00
2017-11-10T21:08:00.252Z,17.90
2017-11-10T21:10:28.261Z,18.00
2017-11-10T21:12:56.097Z,18.00
2017-11-10T21:15:23.935Z,18.00
2017-11-10T21:17:52.042Z,18.00
2017-11-10T21:20:20.095Z,18.00
2017-11-10T21:22:48.095Z,18.00
2017-11-10T21:25:16.627Z,18.00
2017-11-10T21:27:44.866Z,18.00
2017-11-10T21:30:13.559Z,18.00
2017-11-10T21:32:42.169Z,18.00
2017-11-10T21:35:10.129Z,18.00
2017-11-10T21:37:38.269Z,18.00
2017-11-10T21:40:06.240Z,18.00
2017-11-10T21:42:34.210Z,17.90
2017-11-10T21:45:04.765Z,17.90
2017-11-10T21:47:33.707Z,17.90
2017-11-10T21:50:03.131Z,17.90
2017-11-10T21:52:31.414Z,17.90
2017-11-10T21:55:00.065Z,18.00
2017-11-10T21:57:28.284Z,17.90
2017-11-10T21:59:57.058Z,17.90
2017-11-10T22:02:24.985Z,17.90
2017-11-10T22:04:52.836Z,17.90
2017-11-10T22:07:22.169Z,17.90
2017-11-10T22:09:51.734Z,17.80
2017-11-10T22:12:19.671Z,17.90
2017-11-10T22:14:47.574Z,17.90
2017-11-10T22:17:16.010Z,17.90
2017-11-10T22:19:43.914Z,17.90
2017-11-10T22:22:12.540Z,17.90
2017-11-10T22:24:40.468Z,17.90
2017-11-10T22:27:08.699Z,17.90
2017-11-10T22:29:36.508Z,17.80
2017-11-10T22:32:04.512Z,17.80
2017-11-10T22:34:32.350Z,17.80
2017-11-10T22:37:00.181Z,17.80
2017-11-10T22:39:28.201Z,17.80
2017-11-10T22:41:56.073Z,17.80
2017-11-10T22:44:23.927Z,17.80
2017-11-10T22:46:52.507Z,17.80
2017-11-10T22:49:21.245Z,17.70
2017-11-10T22:51:49.408Z,17.70
2017-11-10T22:54:17.309Z,17.70
2017-11-10T22:56:46.390Z,17.60
2017-11-10T22:59:15.052Z,17.60
2017-11-10T23:01:43.035Z,17.60
2017-11-10T23:04:10.927Z,17.60
2017-11-10T23:06:38.973Z,17.60
2017-11-10T23:09:06.908Z,17.60
2017-11-10T23:11:35.109Z,17.50
2017-11-10T23:14:03.057Z,17.50
2017-11-10T23:16:30.887Z,17.40
2017-11-10T23:18:58.785Z,17.40
2017-11-10T23:21:26.729Z,17.40
2017-11-10T23:23:54.652Z,17.40
2017-11-10T23:26:22.494Z,17.30
2017-11-10T23:28:50.341Z,17.30
2017-11-10T23:31:18.193Z,17.30
2017-11-10T23:33:46.059Z,17.30
2017-11-10T23:36:13.999Z,17.20
2017-11-10T23:38:42.771Z,17.20
2017-11-10T23:41:10.612Z,17.20
2017-11-10T23:43:38.463Z,17.20
2017-11-10T23:46:06.333Z,17.10
2017-11-10T23:48:34.233Z,17.20
2017-11-10T23:51:02.050Z,17.10
2017-11-10T23:53:29.975Z,17.10
2017-11-10T23:55:57.925Z,17.10
2017-11-10T23:58:25.768Z,17.10
